createdAt,value
2018-03-30T00:00:54.825Z,99.99
2018-03-30T00:01:54.851Z,99.99
2018-03-30T00:02:54.878Z,99.99
2018-03-30T00:03:54.903Z,99.99
2018-03-30T00:04:54.929Z,99.99
2018-03-30T00:05:54.955Z,99.99
2018-03-30T00:06:54.981Z,99.99
2018-03-30T00:07:55.006Z,99.99
2018-03-30T00:08:55.033Z,99.99
2018-03-30T00:09:55.059Z,99.99
2018-03-30T00:10:55.084Z,99.99
2018-03-30T00:11:55.110Z,99.99
2018-03-30T00:12:55.135Z,99.99
2018-03-30T00:13:55.161Z,99.99
2018-03-30T00:14:55.192Z,99.99
2018-03-30T00:15:55.214Z,99.99
2018-03-30T00:16:55.238Z,99.99
2018-03-30T00:17:55.265Z,99.99
2018-03-30T00:18:55.292Z,99.99
2018-03-30T00:19:55.318Z,99.99
2018-03-30T00:20:55.343Z,99.99
2018-03-30T00:21:55.368Z,99.99
2018-03-30T00:22:55.395Z,99.99
2018-03-30T00:23:55.420Z,99.99
2018-03-30T00:24:55.445Z,99.99
2018-03-30T00:25:55.471Z,99.99
2018-03-30T00:26:55.545Z,99.99
2018-03-30T00:27:55.524Z,99.99
2018-03-30T00:28:55.549Z,99.99
2018-03-30T00:29:55.579Z,99.99
2018-03-30T00:30:55.601Z,99.99
2018-03-30T00:31:55.627Z,99.99
2018-03-30T00:32:55.654Z,99.99
2018-03-30T00:33:55.678Z,99.99
2018-03-30T00:34:55.704Z,99.99
2018-03-30T00:35:55.730Z,99.99
2018-03-30T00:36:55.753Z,99.99
2018-03-30T00:37:55.779Z,99.99
2018-03-30T00:38:55.806Z,99.99
2018-03-30T00:39:55.831Z,99.99
2018-03-30T00:40:55.856Z,99.99
2018-03-30T00:41:55.883Z,99.99
2018-03-30T00:42:55.907Z,99.99
2018-03-30T00:43:55.935Z,99.99
2018-03-30T00:44:55.960Z,99.99
2018-03-30T00:45:55.986Z,99.99
2018-03-30T00:46:56.016Z,99.99
2018-03-30T00:47:56.038Z,99.99
2018-03-30T00:48:56.064Z,99.99
2018-03-30T00:49:56.088Z,99.99
2018-03-30T00:50:56.114Z,99.99
2018-03-30T00:51:56.140Z,99.99
2018-03-30T00:52:56.164Z,99.99
2018-03-30T00:53:56.191Z,99.99
2018-03-30T00:54:56.217Z,99.99
2018-03-30T00:55:56.242Z,99.99
2018-03-30T00:56:56.272Z,99.99
2018-03-30T00:57:56.294Z,99.99
2018-03-30T00:58:56.319Z,99.99
2018-03-30T00:59:56.345Z,99.99
2018-03-30T01:00:56.369Z,99.99
2018-03-30T01:01:56.395Z,99.99
2018-03-30T01:02:56.422Z,99.99
2018-03-30T01:03:56.447Z,99.99
2018-03-30T01:04:56.471Z,99.99
2018-03-30T01:05:56.501Z,99.99
2018-03-30T01:06:56.522Z,99.99
2018-03-30T01:07:56.551Z,99.99
2018-03-30T01:08:56.575Z,99.99
2018-03-30T01:09:56.601Z,99.99
2018-03-30T01:10:56.631Z,99.99
2018-03-30T01:11:56.652Z,99.99
2018-03-30T01:12:56.677Z,99.99
2018-03-30T01:13:56.703Z,99.99
2018-03-30T01:14:56.727Z,99.99
2018-03-30T01:15:56.757Z,99.99
2018-03-30T01:16:56.779Z,99.99
2018-03-30T01:17:56.804Z,99.99
2018-03-30T01:18:56.830Z,99.99
2018-03-30T01:19:56.857Z,99.99
2018-03-30T01:20:56.881Z,99.99
2018-03-30T01:21:56.906Z,99.99
2018-03-30T01:22:56.934Z,99.99
2018-03-30T01:23:56.958Z,99.99
2018-03-30T01:24:56.981Z,99.99
2018-03-30T01:25:57.017Z,99.99
2018-03-30T01:26:57.034Z,99.99
2018-03-30T01:27:57.060Z,99.99
2018-03-30T01:28:57.083Z,99.99
2018-03-30T01:29:57.110Z,99.99
2018-03-30T01:30:57.135Z,99.99
2018-03-30T01:31:57.161Z,99.99
2018-03-30T01:32:57.186Z,99.99
2018-03-30T01:33:57.211Z,99.99
2018-03-30T01:34:57.237Z,99.99
2018-03-30T01:35:57.262Z,99.99
2018-03-30T01:36:57.287Z,99.99
2018-03-30T01:37:57.313Z,99.99
2018-03-30T01:38:57.338Z,99.99
2018-03-30T01:39:57.364Z,99.99
2018-03-30T01:40:57.389Z,99.99
2018-03-30T01:41:57.414Z,99.99
2018-03-30T01:42:57.440Z,99.99
2018-03-30T01:43:57.464Z,99.99
2018-03-30T01:44:57.490Z,99.99
2018-03-30T01:45:57.516Z,99.99
2018-03-30T01:46:57.541Z,99.99
2018-03-30T01:47:57.565Z,99.99
2018-03-30T01:48:57.591Z,99.99
2018-03-30T01:49:57.620Z,99.99
2018-03-30T01:50:57.642Z,99.99
2018-03-30T01:51:57.668Z,99.99
2018-03-30T01:52:57.692Z,99.99
2018-03-30T01:53:57.715Z,99.99
2018-03-30T01:54:57.743Z,99.99
2018-03-30T01:55:57.771Z,99.99
2018-03-30T01:56:57.793Z,99.99
2018-03-30T01:57:57.818Z,99.99
2018-03-30T01:58:57.866Z,99.99
2018-03-30T01:59:57.871Z,99.99
2018-03-30T02:00:57.895Z,99.99
2018-03-30T02:01:57.921Z,99.99
2018-03-30T02:02:57.947Z,99.99
2018-03-30T02:03:57.970Z,99.99
2018-03-30T02:04:57.994Z,99.99
2018-03-30T02:05:58.020Z,99.99
2018-03-30T02:06:58.046Z,99.99
2018-03-30T02:07:58.072Z,99.99
2018-03-30T02:08:58.096Z,99.99
2018-03-30T02:09:58.122Z,99.99
2018-03-30T02:10:58.152Z,99.99
2018-03-30T02:11:58.176Z,99.99
2018-03-30T02:12:58.198Z,99.99
2018-03-30T02:13:58.227Z,99.99
2018-03-30T02:14:58.248Z,99.99
2018-03-30T02:15:58.307Z,99.99
2018-03-30T02:16:58.296Z,99.99
2018-03-30T02:17:58.328Z,99.99
2018-03-30T02:18:58.348Z,99.99
2018-03-30T02:19:58.382Z,99.99
2018-03-30T02:20:58.398Z,99.99
2018-03-30T02:21:58.424Z,99.99
2018-03-30T02:22:58.448Z,99.99
2018-03-30T02:23:58.474Z,99.99
2018-03-30T02:24:58.499Z,99.99
2018-03-30T02:25:58.524Z,99.99
2018-03-30T02:26:58.551Z,99.99
2018-03-30T02:27:58.575Z,99.99
2018-03-30T02:28:58.600Z,99.99
2018-03-30T02:29:58.626Z,99.99
2018-03-30T02:30:58.652Z,99.99
2018-03-30T02:31:58.679Z,99.99
2018-03-30T02:32:58.702Z,99.99
2018-03-30T02:33:58.725Z,99.99
2018-03-30T02:34:58.752Z,99.99
2018-03-30T02:35:58.780Z,99.99
2018-03-30T02:36:58.811Z,99.99
2018-03-30T02:37:58.829Z,99.99
2018-03-30T02:38:58.852Z,99.99
2018-03-30T02:39:58.879Z,99.99
2018-03-30T02:40:58.904Z,99.99
2018-03-30T02:41:58.928Z,99.99
2018-03-30T02:42:58.954Z,99.99
2018-03-30T02:43:58.980Z,99.99
2018-03-30T02:44:59.004Z,99.99
2018-03-30T02:45:59.030Z,99.99
2018-03-30T02:46:59.054Z,99.99
2018-03-30T02:47:59.083Z,99.99
2018-03-30T02:48:59.105Z,99.99
2018-03-30T02:49:59.130Z,99.99
2018-03-30T02:50:59.156Z,99.99
2018-03-30T02:51:59.181Z,99.99
2018-03-30T02:52:59.205Z,99.99
2018-03-30T02:53:59.231Z,99.99
2018-03-30T02:54:59.256Z,99.99
2018-03-30T02:55:59.281Z,99.99
2018-03-30T02:56:59.316Z,99.99
2018-03-30T02:57:59.333Z,99.99
2018-03-30T02:58:59.357Z,99.99
2018-03-30T02:59:59.383Z,99.99
2018-03-30T03:00:59.406Z,99.99
2018-03-30T03:01:59.434Z,99.99
2018-03-30T03:02:59.457Z,99.99
2018-03-30T03:03:59.483Z,99.99
2018-03-30T03:04:59.507Z,99.99
2018-03-30T03:05:59.549Z,99.99
2018-03-30T03:06:59.559Z,99.99
2018-03-30T03:07:59.583Z,99.99
2018-03-30T03:08:59.607Z,99.99
2018-03-30T03:09:59.633Z,99.99
2018-03-30T03:10:59.658Z,99.99
2018-03-30T03:11:59.684Z,99.99
2018-03-30T03:12:59.707Z,99.99
2018-03-30T03:13:59.732Z,99.99
2018-03-30T03:14:59.759Z,99.99
2018-03-30T03:15:59.790Z,99.99
2018-03-30T03:16:59.806Z,99.99
2018-03-30T03:17:59.837Z,99.99
2018-03-30T03:18:59.858Z,99.99
2018-03-30T03:19:59.885Z,99.99
2018-03-30T03:20:59.909Z,99.99
2018-03-30T03:21:59.934Z,99.99
2018-03-30T03:22:59.960Z,99.99
2018-03-30T03:23:59.990Z,99.99
2018-03-30T03:25:00.013Z,99.99
2018-03-30T03:26:00.037Z,99.99
2018-03-30T03:27:00.061Z,99.99
2018-03-30T03:28:00.086Z,99.99
2018-03-30T03:29:00.110Z,99.99
2018-03-30T03:30:00.146Z,99.99
2018-03-30T03:31:00.162Z,99.99
2018-03-30T03:32:00.188Z,99.99
2018-03-30T03:33:00.211Z,99.99
2018-03-30T03:34:00.237Z,99.99
2018-03-30T03:35:00.262Z,99.99
2018-03-30T03:36:00.287Z,99.99
2018-03-30T03:37:00.311Z,99.99
2018-03-30T03:38:00.338Z,99.99
2018-03-30T03:39:00.362Z,99.99
2018-03-30T03:40:00.388Z,99.99
2018-03-30T03:41:00.423Z,99.99
2018-03-30T03:42:00.443Z,99.99
2018-03-30T03:43:00.464Z,99.99
2018-03-30T03:44:00.495Z,99.99
2018-03-30T03:45:00.514Z,99.99
2018-03-30T03:46:00.541Z,99.99
2018-03-30T03:47:00.564Z,99.99
2018-03-30T03:48:00.594Z,99.99
2018-03-30T03:49:00.614Z,99.99
2018-03-30T03:50:00.639Z,99.99
2018-03-30T03:51:00.665Z,99.99
2018-03-30T03:52:00.696Z,99.99
2018-03-30T03:53:00.715Z,99.99
2018-03-30T03:54:00.739Z,99.99
2018-03-30T03:55:00.765Z,99.99
2018-03-30T03:56:00.790Z,99.99
2018-03-30T03:57:00.816Z,99.99
2018-03-30T03:58:00.842Z,99.99
2018-03-30T03:59:00.865Z,99.99
2018-03-30T04:00:00.891Z,99.99
2018-03-30T04:01:00.916Z,99.99
2018-03-30T04:02:00.947Z,99.99
2018-03-30T04:03:00.968Z,99.99
2018-03-30T04:04:00.991Z,99.99
2018-03-30T04:05:01.017Z,99.99
2018-03-30T04:06:01.041Z,99.99
2018-03-30T04:07:01.067Z,99.99
2018-03-30T04:08:01.094Z,99.99
2018-03-30T04:09:01.116Z,99.99
2018-03-30T04:10:01.142Z,99.99
2018-03-30T04:11:01.169Z,99.99
2018-03-30T04:12:01.193Z,99.99
2018-03-30T04:13:01.219Z,99.99
2018-03-30T04:14:01.242Z,99.99
2018-03-30T04:15:01.267Z,99.99
2018-03-30T04:16:01.293Z,99.99
2018-03-30T04:17:01.318Z,99.99
2018-03-30T04:18:01.343Z,99.99
2018-03-30T04:19:01.369Z,99.99
2018-03-30T04:20:01.394Z,99.99
2018-03-30T04:21:01.418Z,99.99
2018-03-30T04:22:01.442Z,99.99
2018-03-30T04:23:01.468Z,99.99
2018-03-30T04:24:01.492Z,99.99
2018-03-30T04:25:01.518Z,99.99
2018-03-30T04:26:01.544Z,99.99
2018-03-30T04:27:01.575Z,99.99
2018-03-30T04:28:01.596Z,99.99
2018-03-30T04:29:01.617Z,99.99
2018-03-30T04:30:01.643Z,99.99
2018-03-30T04:31:01.667Z,99.99
2018-03-30T04:32:01.694Z,99.99
2018-03-30T04:33:01.717Z,99.99
2018-03-30T04:34:01.743Z,99.99
2018-03-30T04:35:01.768Z,99.99
2018-03-30T04:36:01.793Z,99.99
2018-03-30T04:37:01.817Z,99.99
2018-03-30T04:38:01.842Z,99.99
2018-03-30T04:39:01.868Z,99.99
2018-03-30T04:40:01.892Z,99.99
2018-03-30T04:41:01.917Z,99.99
2018-03-30T04:42:01.943Z,99.99
2018-03-30T04:43:01.969Z,99.99
2018-03-30T04:44:01.993Z,99.99
2018-03-30T04:45:02.017Z,99.99
2018-03-30T04:46:02.042Z,99.99
2018-03-30T04:47:02.067Z,99.99
2018-03-30T04:48:02.092Z,99.99
2018-03-30T04:49:02.118Z,99.99
2018-03-30T04:50:02.156Z,99.99
2018-03-30T04:51:02.169Z,99.99
2018-03-30T04:52:02.192Z,99.99
2018-03-30T04:53:02.218Z,99.99
2018-03-30T04:54:02.241Z,99.99
2018-03-30T04:55:02.267Z,99.99
2018-03-30T04:56:02.292Z,99.99
2018-03-30T04:57:02.316Z,99.99
2018-03-30T04:58:02.342Z,99.99
2018-03-30T04:59:02.367Z,99.99
2018-03-30T05:00:02.393Z,99.99
2018-03-30T05:01:02.416Z,99.99
2018-03-30T05:02:02.445Z,99.99
2018-03-30T05:03:02.466Z,99.99
2018-03-30T05:04:02.491Z,99.99
2018-03-30T05:05:02.515Z,99.99
2018-03-30T05:06:02.541Z,99.99
2018-03-30T05:07:02.565Z,99.99
2018-03-30T05:08:02.591Z,99.99
2018-03-30T05:09:02.615Z,99.99
2018-03-30T05:10:02.638Z,99.99
2018-03-30T05:11:02.665Z,99.99
2018-03-30T05:12:02.689Z,99.99
2018-03-30T05:13:02.713Z,99.99
2018-03-30T05:14:02.739Z,99.99
2018-03-30T05:15:02.767Z,99.99
2018-03-30T05:16:02.788Z,99.99
2018-03-30T05:17:02.813Z,99.99
2018-03-30T05:18:02.842Z,99.99
2018-03-30T05:19:02.862Z,99.99
2018-03-30T05:20:02.888Z,99.99
2018-03-30T05:21:02.912Z,99.99
2018-03-30T05:22:02.990Z,99.99
2018-03-30T05:23:02.963Z,99.99
2018-03-30T05:24:02.988Z,99.99
2018-03-30T05:25:03.012Z,99.99
2018-03-30T05:26:03.036Z,99.99
2018-03-30T05:27:03.062Z,99.99
2018-03-30T05:28:03.092Z,99.99
2018-03-30T05:29:03.111Z,99.99
2018-03-30T05:30:03.137Z,99.99
2018-03-30T05:31:03.162Z,99.99
2018-03-30T05:32:03.187Z,99.99
2018-03-30T05:33:03.211Z,99.99
2018-03-30T05:34:03.236Z,99.99
2018-03-30T05:35:03.259Z,99.99
2018-03-30T05:36:03.286Z,99.99
2018-03-30T05:37:03.310Z,99.99
2018-03-30T05:38:03.335Z,99.99
2018-03-30T05:39:03.362Z,99.99
2018-03-30T05:40:03.390Z,99.99
2018-03-30T05:41:03.410Z,99.99
2018-03-30T05:42:03.436Z,99.99
2018-03-30T05:43:03.460Z,99.99
2018-03-30T05:44:03.486Z,99.99
2018-03-30T05:45:03.514Z,99.99
2018-03-30T05:46:03.536Z,99.99
2018-03-30T05:47:03.562Z,99.99
2018-03-30T05:48:03.586Z,99.99
2018-03-30T05:49:03.612Z,99.99
2018-03-30T05:50:03.639Z,99.99
2018-03-30T05:51:03.660Z,99.99
2018-03-30T05:52:03.685Z,99.99
2018-03-30T05:53:03.710Z,99.99
2018-03-30T05:54:03.737Z,99.99
2018-03-30T05:55:03.763Z,99.99
2018-03-30T05:56:03.787Z,99.99
2018-03-30T05:57:03.812Z,99.99
2018-03-30T05:58:03.837Z,99.99
2018-03-30T05:59:03.862Z,99.99
2018-03-30T06:00:03.888Z,99.99
2018-03-30T06:01:03.913Z,99.99
2018-03-30T06:02:03.938Z,99.99
2018-03-30T06:03:03.964Z,99.99
2018-03-30T06:04:03.989Z,99.99
2018-03-30T06:05:04.014Z,99.99
2018-03-30T06:06:04.043Z,99.99
2018-03-30T06:07:04.064Z,99.99
2018-03-30T06:08:04.129Z,99.99
2018-03-30T06:09:04.115Z,99.99
2018-03-30T06:10:04.145Z,99.99
2018-03-30T06:11:04.166Z,99.99
2018-03-30T06:12:04.191Z,99.99
2018-03-30T06:13:04.216Z,99.99
2018-03-30T06:14:04.242Z,99.99
2018-03-30T06:15:04.269Z,99.99
2018-03-30T06:16:04.299Z,99.99
2018-03-30T06:17:04.318Z,99.99
2018-03-30T06:18:04.345Z,99.99
2018-03-30T06:19:04.405Z,99.99
2018-03-30T06:21:04.421Z,99.99
2018-03-30T06:22:04.447Z,99.99
2018-03-30T06:23:04.474Z,99.99
2018-03-30T06:24:04.502Z,99.99
2018-03-30T06:25:04.524Z,99.99
2018-03-30T06:26:04.550Z,99.99
2018-03-30T06:27:04.576Z,99.99
2018-03-30T06:28:04.602Z,99.99
2018-03-30T06:29:04.628Z,99.99
2018-03-30T06:30:04.654Z,99.99
2018-03-30T06:31:04.680Z,99.99
2018-03-30T06:32:04.707Z,99.99
2018-03-30T06:33:04.732Z,99.99
2018-03-30T06:34:04.758Z,99.99
2018-03-30T06:35:04.787Z,99.99
2018-03-30T06:36:04.810Z,99.99
2018-03-30T06:37:04.841Z,99.99
2018-03-30T06:38:04.862Z,99.99
2018-03-30T06:39:04.889Z,99.99
2018-03-30T06:40:04.914Z,99.99
2018-03-30T06:41:04.941Z,99.99
2018-03-30T06:42:04.968Z,99.99
2018-03-30T06:43:04.994Z,99.99
2018-03-30T06:44:05.025Z,99.99
2018-03-30T06:45:05.047Z,99.99
2018-03-30T06:46:05.074Z,99.99
2018-03-30T06:47:05.105Z,99.99
2018-03-30T06:48:05.128Z,99.99
2018-03-30T06:49:05.154Z,99.99
2018-03-30T06:50:05.186Z,99.99
2018-03-30T06:51:05.208Z,99.99
2018-03-30T06:52:05.235Z,99.99
2018-03-30T06:53:05.260Z,99.99
2018-03-30T06:54:05.287Z,99.99
2018-03-30T06:55:05.314Z,99.99
2018-03-30T06:56:05.342Z,99.99
2018-03-30T06:57:05.368Z,99.99
2018-03-30T06:58:05.394Z,99.99
2018-03-30T06:59:05.422Z,99.99
2018-03-30T07:00:05.449Z,99.99
2018-03-30T07:01:05.480Z,99.99
2018-03-30T07:02:05.507Z,99.99
2018-03-30T07:03:05.529Z,99.99
2018-03-30T07:04:05.557Z,99.99
2018-03-30T07:05:05.584Z,99.99
2018-03-30T07:06:05.611Z,99.99
2018-03-30T07:07:05.686Z,99.99
2018-03-30T07:08:05.665Z,99.99
2018-03-30T07:09:05.695Z,99.99
2018-03-30T07:10:05.719Z,99.99
2018-03-30T07:11:05.747Z,99.99
2018-03-30T07:12:05.776Z,99.99
2018-03-30T07:13:05.800Z,99.99
2018-03-30T07:14:05.828Z,99.99
2018-03-30T07:15:05.857Z,99.99
2018-03-30T07:16:05.942Z,99.99
2018-03-30T07:17:05.912Z,99.99
2018-03-30T07:18:05.940Z,99.99
2018-03-30T07:19:05.967Z,99.99
2018-03-30T07:20:05.995Z,99.99
2018-03-30T07:21:06.022Z,99.99
2018-03-30T07:22:06.051Z,99.99
2018-03-30T07:23:06.078Z,99.99
2018-03-30T07:24:06.106Z,99.99
2018-03-30T07:25:06.134Z,99.99
2018-03-30T07:26:06.162Z,99.99
2018-03-30T07:27:06.192Z,99.99
2018-03-30T07:28:06.219Z,99.99
2018-03-30T07:29:06.248Z,99.99
2018-03-30T07:30:06.277Z,99.99
2018-03-30T07:31:06.304Z,99.99
2018-03-30T07:32:06.334Z,99.99
2018-03-30T07:33:06.362Z,99.99
2018-03-30T07:34:06.442Z,99.99
2018-03-30T07:35:06.420Z,99.99
2018-03-30T07:36:06.448Z,99.99
2018-03-30T07:37:06.509Z,98.79
2018-03-30T07:38:06.508Z,98.64
2018-03-30T07:39:06.537Z,99.11
2018-03-30T07:40:06.565Z,99.02
2018-03-30T07:41:06.593Z,97.50
2018-03-30T07:42:06.623Z,97.78
2018-03-30T07:43:06.653Z,97.31
2018-03-30T07:44:06.682Z,96.84
2018-03-30T07:45:06.719Z,95.94
2018-03-30T07:46:06.742Z,95.36
2018-03-30T07:47:06.770Z,94.70
2018-03-30T07:48:06.801Z,94.32
2018-03-30T07:49:06.829Z,94.13
2018-03-30T07:50:06.860Z,93.55
2018-03-30T07:51:06.891Z,93.27
2018-03-30T07:52:06.966Z,92.18
2018-03-30T07:53:06.951Z,92.08
2018-03-30T07:54:06.982Z,91.99
2018-03-30T07:55:07.012Z,92.46
2018-03-30T07:56:07.042Z,91.03
2018-03-30T07:57:07.072Z,90.70
2018-03-30T07:58:07.104Z,89.70
2018-03-30T07:59:07.134Z,89.47
2018-03-30T08:00:07.166Z,89.27
2018-03-30T08:01:07.196Z,89.65
2018-03-30T08:02:07.226Z,89.47
2018-03-30T08:03:07.259Z,87.85
2018-03-30T08:04:07.289Z,88.65
2018-03-30T08:05:07.320Z,87.79
2018-03-30T08:06:07.353Z,87.60
2018-03-30T08:07:07.384Z,86.55
2018-03-30T08:08:07.416Z,87.27
2018-03-30T08:09:07.504Z,86.60
2018-03-30T08:10:07.477Z,86.79
2018-03-30T08:11:07.509Z,86.32
2018-03-30T08:12:07.542Z,86.22
2018-03-30T08:13:07.573Z,85.36
2018-03-30T08:14:07.605Z,84.55
2018-03-30T08:15:07.636Z,83.59
2018-03-30T08:16:07.669Z,82.54
2018-03-30T08:17:07.701Z,82.26
2018-03-30T08:18:07.734Z,82.54
2018-03-30T08:19:07.770Z,81.40
2018-03-30T08:20:07.798Z,82.35
2018-03-30T08:21:07.832Z,81.78
2018-03-30T08:22:07.860Z,81.40
2018-03-30T08:23:07.895Z,80.01
2018-03-30T08:24:07.928Z,81.06
2018-03-30T08:25:07.960Z,79.44
2018-03-30T08:26:07.993Z,78.20
2018-03-30T08:27:08.026Z,78.01
2018-03-30T08:28:08.060Z,77.62
2018-03-30T08:29:08.092Z,77.28
2018-03-30T08:30:08.125Z,77.57
2018-03-30T08:31:08.160Z,76.48
2018-03-30T08:32:08.193Z,78.10
2018-03-30T08:33:08.226Z,78.43
2018-03-30T08:34:08.265Z,75.76
2018-03-30T08:35:08.293Z,75.89
2018-03-30T08:36:08.328Z,74.93
2018-03-30T08:37:08.360Z,74.80
2018-03-30T08:38:08.396Z,74.08
2018-03-30T08:39:08.430Z,73.22
2018-03-30T08:40:08.463Z,72.07
2018-03-30T08:41:08.498Z,71.34
2018-03-30T08:42:08.533Z,70.29
2018-03-30T08:43:08.568Z,71.98
2018-03-30T08:44:08.602Z,71.88
2018-03-30T08:45:08.635Z,71.98
2018-03-30T08:46:08.671Z,72.83
2018-03-30T08:47:08.706Z,73.41
2018-03-30T08:48:08.741Z,73.98
2018-03-30T08:49:08.775Z,74.08
2018-03-30T08:50:08.811Z,73.22
2018-03-30T08:51:08.845Z,73.41
2018-03-30T08:52:08.881Z,75.03
2018-03-30T08:53:08.914Z,74.27
2018-03-30T08:54:08.954Z,74.71
2018-03-30T08:55:08.983Z,74.27
2018-03-30T08:56:09.020Z,74.23
2018-03-30T08:57:09.054Z,74.17
2018-03-30T08:58:09.089Z,73.66
2018-03-30T08:59:09.125Z,73.37
2018-03-30T09:00:09.160Z,73.08
2018-03-30T09:01:09.194Z,74.52
2018-03-30T09:02:09.280Z,74.23
2018-03-30T09:03:09.265Z,73.08
2018-03-30T09:04:09.299Z,72.83
2018-03-30T09:05:09.334Z,70.33
2018-03-30T09:06:09.368Z,67.14
2018-03-30T09:07:09.405Z,64.43
2018-03-30T09:08:09.440Z,61.15
2018-03-30T09:09:09.476Z,58.59
2018-03-30T09:10:09.512Z,55.12
2018-03-30T09:11:09.550Z,52.58
2018-03-30T09:12:09.586Z,52.29
2018-03-30T09:13:09.623Z,49.46
2018-03-30T09:14:09.666Z,46.45
2018-03-30T09:15:09.702Z,45.36
2018-03-30T09:16:09.738Z,44.13
2018-03-30T09:17:09.777Z,43.46
2018-03-30T09:18:09.817Z,44.79
2018-03-30T09:19:09.856Z,45.46
2018-03-30T09:20:09.896Z,43.65
2018-03-30T09:21:09.937Z,42.61
2018-03-30T09:22:09.978Z,42.08
2018-03-30T09:23:10.016Z,41.60
2018-03-30T09:24:10.061Z,40.84
2018-03-30T09:25:10.099Z,41.40
2018-03-30T09:26:10.142Z,43.05
2018-03-30T09:27:10.183Z,44.38
2018-03-30T09:28:10.225Z,45.15
2018-03-30T09:29:10.266Z,45.61
2018-03-30T09:30:10.309Z,46.21
2018-03-30T09:31:10.351Z,47.22
2018-03-30T09:32:10.396Z,48.64
2018-03-30T09:33:10.438Z,50.96
2018-03-30T09:34:10.480Z,52.31
2018-03-30T09:35:10.523Z,50.92
2018-03-30T09:36:10.566Z,51.50
2018-03-30T09:37:10.608Z,51.31
2018-03-30T09:38:10.652Z,49.24
2018-03-30T09:39:10.694Z,46.40
2018-03-30T09:40:10.738Z,45.58
2018-03-30T09:41:10.779Z,43.60
2018-03-30T09:42:10.823Z,42.32
2018-03-30T09:43:10.866Z,43.65
2018-03-30T09:44:10.910Z,43.04
2018-03-30T09:45:10.952Z,41.52
2018-03-30T09:46:11.000Z,39.62
2018-03-30T09:47:11.044Z,39.49
2018-03-30T09:48:11.085Z,39.78
2018-03-30T09:49:11.131Z,40.75
2018-03-30T09:50:11.174Z,39.80
2018-03-30T09:51:11.221Z,39.59
2018-03-30T09:52:11.267Z,39.74
2018-03-30T09:53:11.312Z,40.80
2018-03-30T09:54:11.357Z,42.42
2018-03-30T09:55:11.403Z,43.90
2018-03-30T09:56:11.450Z,45.99
2018-03-30T09:57:11.495Z,47.77
2018-03-30T09:58:11.540Z,49.99
2018-03-30T09:59:11.586Z,51.50
2018-03-30T10:00:11.632Z,51.76
2018-03-30T10:01:11.677Z,52.40
2018-03-30T10:02:11.720Z,53.31
2018-03-30T10:03:11.766Z,54.85
2018-03-30T10:04:11.811Z,55.40
2018-03-30T10:05:11.855Z,55.30
2018-03-30T10:06:11.899Z,56.16
2018-03-30T10:07:11.942Z,56.93
2018-03-30T10:08:11.993Z,56.87
2018-03-30T10:09:12.030Z,58.79
2018-03-30T10:10:12.071Z,59.65
2018-03-30T10:11:12.114Z,60.70
2018-03-30T10:12:12.157Z,60.86
2018-03-30T10:13:12.197Z,62.11
2018-03-30T10:14:12.239Z,63.03
2018-03-30T10:15:12.281Z,64.18
2018-03-30T10:16:12.321Z,65.52
2018-03-30T10:17:12.361Z,66.16
2018-03-30T10:18:12.402Z,66.44
2018-03-30T10:19:12.442Z,67.78
2018-03-30T10:20:12.483Z,68.90
2018-03-30T10:21:12.519Z,68.32
2018-03-30T10:22:12.560Z,68.13
2018-03-30T10:23:12.604Z,69.24
2018-03-30T10:24:12.638Z,69.24
2018-03-30T10:25:12.691Z,69.05
2018-03-30T10:26:12.714Z,69.24
2018-03-30T10:27:12.752Z,69.72
2018-03-30T10:28:12.791Z,70.39
2018-03-30T10:29:12.832Z,70.10
2018-03-30T10:30:12.866Z,70.87
2018-03-30T10:31:12.902Z,71.92
2018-03-30T10:32:12.941Z,71.21
2018-03-30T10:33:12.977Z,71.02
2018-03-30T10:34:13.014Z,71.50
2018-03-30T10:35:13.049Z,71.69
2018-03-30T10:36:13.087Z,71.41
2018-03-30T10:37:13.124Z,71.88
2018-03-30T10:38:13.159Z,71.92
2018-03-30T10:39:13.195Z,72.45
2018-03-30T10:40:13.230Z,73.79
2018-03-30T10:41:13.268Z,73.79
2018-03-30T10:42:13.302Z,73.22
2018-03-30T10:43:13.336Z,72.45
2018-03-30T10:44:13.372Z,72.26
2018-03-30T10:45:13.409Z,72.64
2018-03-30T10:46:13.443Z,73.03
2018-03-30T10:47:13.477Z,73.60
2018-03-30T10:48:13.514Z,73.88
2018-03-30T10:49:13.548Z,73.56
2018-03-30T10:50:13.584Z,74.23
2018-03-30T10:51:13.621Z,74.46
2018-03-30T10:52:13.653Z,74.71
2018-03-30T10:53:13.695Z,74.80
2018-03-30T10:54:13.721Z,74.52
2018-03-30T10:55:13.761Z,74.80
2018-03-30T10:56:13.792Z,74.99
2018-03-30T10:57:13.826Z,75.28
2018-03-30T10:58:13.859Z,75.57
2018-03-30T10:59:13.896Z,75.37
2018-03-30T11:00:13.929Z,75.37
2018-03-30T11:01:13.964Z,76.81
2018-03-30T11:02:13.997Z,77.19
2018-03-30T11:03:14.032Z,77.57
2018-03-30T11:04:14.066Z,77.53
2018-03-30T11:05:14.153Z,77.38
2018-03-30T11:06:14.134Z,77.19
2018-03-30T11:07:14.167Z,77.19
2018-03-30T11:08:14.200Z,76.42
2018-03-30T11:09:14.235Z,76.42
2018-03-30T11:10:14.269Z,76.52
2018-03-30T11:11:14.302Z,77.38
2018-03-30T11:12:14.336Z,77.19
2018-03-30T11:13:14.369Z,77.38
2018-03-30T11:14:14.403Z,77.67
2018-03-30T11:15:14.440Z,78.62
2018-03-30T11:16:14.471Z,78.33
2018-03-30T11:17:14.503Z,77.19
2018-03-30T11:18:14.537Z,77.47
2018-03-30T11:19:14.571Z,77.80
2018-03-30T11:20:14.605Z,77.57
2018-03-30T11:21:14.637Z,78.81
2018-03-30T11:22:14.672Z,79.19
2018-03-30T11:23:14.709Z,79.48
2018-03-30T11:24:14.740Z,80.33
2018-03-30T11:25:14.772Z,79.38
2018-03-30T11:26:14.805Z,78.52
2018-03-30T11:27:14.840Z,78.28
2018-03-30T11:28:14.873Z,77.23
2018-03-30T11:29:14.906Z,77.23
2018-03-30T11:30:14.941Z,76.75
2018-03-30T11:31:14.974Z,76.18
2018-03-30T11:32:15.014Z,76.65
2018-03-30T11:33:15.043Z,76.37
2018-03-30T11:34:15.076Z,76.27
2018-03-30T11:35:15.110Z,76.37
2018-03-30T11:36:15.143Z,76.18
2018-03-30T11:37:15.178Z,75.26
2018-03-30T11:38:15.215Z,75.07
2018-03-30T11:39:15.247Z,74.59
2018-03-30T11:40:15.281Z,74.49
2018-03-30T11:41:15.317Z,74.11
2018-03-30T11:42:15.348Z,73.44
2018-03-30T11:43:15.382Z,73.39
2018-03-30T11:44:15.418Z,72.72
2018-03-30T11:45:15.452Z,72.62
2018-03-30T11:46:15.487Z,70.94
2018-03-30T11:47:15.522Z,71.42
2018-03-30T11:48:15.557Z,71.95
2018-03-30T11:49:15.591Z,71.13
2018-03-30T11:50:15.628Z,68.36
2018-03-30T11:51:15.663Z,65.26
2018-03-30T11:52:15.698Z,63.54
2018-03-30T11:53:15.733Z,62.77
2018-03-30T11:54:15.769Z,62.01
2018-03-30T11:55:15.806Z,61.34
2018-03-30T11:56:15.844Z,61.37
2018-03-30T11:57:15.879Z,58.74
2018-03-30T11:58:15.917Z,58.17
2018-03-30T11:59:15.955Z,57.17
2018-03-30T12:00:15.992Z,54.34
2018-03-30T12:01:16.030Z,53.74
2018-03-30T12:02:16.067Z,53.25
2018-03-30T12:03:16.157Z,52.51
2018-03-30T12:04:16.147Z,51.81
2018-03-30T12:05:16.186Z,53.83
2018-03-30T12:06:16.225Z,54.55
2018-03-30T12:07:16.266Z,54.12
2018-03-30T12:08:16.306Z,51.34
2018-03-30T12:09:16.354Z,48.11
2018-03-30T12:10:16.388Z,46.13
2018-03-30T12:11:16.431Z,43.41
2018-03-30T12:12:16.473Z,39.78
2018-03-30T12:13:16.515Z,38.56
2018-03-30T12:14:16.559Z,36.85
2018-03-30T12:15:16.602Z,37.51
2018-03-30T12:16:16.647Z,35.71
2018-03-30T12:17:16.691Z,35.59
2018-03-30T12:18:16.744Z,34.93
2018-03-30T12:19:16.784Z,36.58
2018-03-30T12:20:16.841Z,37.13
2018-03-30T12:21:16.877Z,35.94
2018-03-30T12:22:16.925Z,36.02
2018-03-30T12:23:16.972Z,39.51
2018-03-30T12:24:17.019Z,41.77
2018-03-30T12:25:17.068Z,44.37
2018-03-30T12:26:17.118Z,45.04
2018-03-30T12:27:17.164Z,47.51
2018-03-30T12:28:17.212Z,51.69
2018-03-30T12:29:17.258Z,52.65
2018-03-30T12:30:17.307Z,51.89
2018-03-30T12:31:17.353Z,50.35
2018-03-30T12:32:17.401Z,49.12
2018-03-30T12:33:17.446Z,49.34
2018-03-30T12:34:17.495Z,46.47
2018-03-30T12:35:17.541Z,44.43
2018-03-30T12:36:17.589Z,41.87
2018-03-30T12:37:17.634Z,38.60
2018-03-30T12:38:17.681Z,36.18
2018-03-30T12:39:17.729Z,34.66
2018-03-30T12:40:17.777Z,35.21
2018-03-30T12:41:17.825Z,36.44
2018-03-30T12:42:17.871Z,36.78
2018-03-30T12:43:17.917Z,38.99
2018-03-30T12:44:17.966Z,39.55
2018-03-30T12:45:18.018Z,40.01
2018-03-30T12:46:18.081Z,42.54
2018-03-30T12:47:18.109Z,44.93
2018-03-30T12:48:18.158Z,44.45
2018-03-30T12:49:18.203Z,46.14
2018-03-30T12:50:18.255Z,48.03
2018-03-30T12:51:18.299Z,48.25
2018-03-30T12:52:18.346Z,49.00
2018-03-30T12:53:18.390Z,48.08
2018-03-30T12:54:18.438Z,46.56